sensor_id;sensor_type;location;lat;lon;timestamp;P1;durP1;ratioP1;P2;durP2;ratioP2
773;SDS011;370;48.810;9.150;2022-11-20T00:00:47;5.55;;;3.20;;
773;SDS011;370;48.810;9.150;2022-11-20T00:03:14;4.63;;;2.55;;
773;SDS011;370;48.810;9.150;2022-11-20T00:05:42;6.93;;;2.92;;
773;SDS011;370;48.810;9.150;2022-11-20T00:08:09;11.73;;;4.45;;
773;SDS011;370;48.810;9.150;2022-11-20T00:10:36;5.72;;;2.58;;
773;SDS011;370;48.810;9.150;2022-11-20T00:13:04;5.95;;;3.10;;
773;SDS011;370;48.810;9.150;2022-11-20T00:15:31;9.38;;;2.67;;
773;SDS011;370;48.810;9.150;2022-11-20T00:17:59;7.30;;;3.65;;
773;SDS011;370;48.810;9.150;2022-11-20T00:20:26;5.95;;;2.85;;
773;SDS011;370;48.810;9.150;2022-11-20T00:22:53;10.15;;;4.57;;
773;SDS011;370;48.810;9.150;2022-11-20T00:25:20;11.43;;;3.65;;
773;SDS011;370;48.810;9.150;2022-11-20T00:27:47;8.02;;;3.83;;
773;SDS011;370;48.810;9.150;2022-11-20T00:30:13;4.72;;;2.45;;
773;SDS011;370;48.810;9.150;2022-11-20T00:32:40;7.20;;;3.22;;
773;SDS011;370;48.810;9.150;2022-11-20T00:35:08;7.95;;;4.18;;
773;SDS011;370;48.810;9.150;2022-11-20T00:37:35;7.80;;;3.03;;
773;SDS011;370;48.810;9.150;2022-11-20T00:40:02;9.73;;;3.97;;
773;SDS011;370;48.810;9.150;2022-11-20T00:42:29;8.13;;;2.90;;
773;SDS011;370;48.810;9.150;2022-11-20T00:44:57;6.70;;;3.30;;
773;SDS011;370;48.810;9.150;2022-11-20T00:47:24;5.60;;;2.90;;
773;SDS011;370;48.810;9.150;2022-11-20T00:49:51;12.45;;;3.17;;
773;SDS011;370;48.810;9.150;2022-11-20T00:52:19;3.92;;;2.15;;
773;SDS011;370;48.810;9.150;2022-11-20T00:54:45;9.63;;;2.78;;
773;SDS011;370;48.810;9.150;2022-11-20T00:57:12;7.25;;;3.35;;
773;SDS011;370;48.810;9.150;2022-11-20T00:59:39;4.75;;;2.65;;
773;SDS011;370;48.810;9.150;2022-11-20T01:02:06;8.63;;;3.42;;
773;SDS011;370;48.810;9.150;2022-11-20T01:04:33;5.78;;;2.72;;
773;SDS011;370;48.810;9.150;2022-11-20T01:06:59;6.60;;;3.22;;
773;SDS011;370;48.810;9.150;2022-11-20T01:09:27;7.47;;;3.20;;
773;SDS011;370;48.810;9.150;2022-11-20T01:11:54;4.65;;;3.72;;
773;SDS011;370;48.810;9.150;2022-11-20T01:14:21;3.65;;;2.63;;
773;SDS011;370;48.810;9.150;2022-11-20T01:16:49;14.40;;;3.97;;
773;SDS011;370;48.810;9.150;2022-11-20T01:19:17;5.90;;;2.80;;
773;SDS011;370;48.810;9.150;2022-11-20T01:21:47;5.07;;;3.08;;
773;SDS011;370;48.810;9.150;2022-11-20T01:24:16;6.07;;;3.45;;
773;SDS011;370;48.810;9.150;2022-11-20T01:26:47;7.25;;;2.90;;
773;SDS011;370;48.810;9.150;2022-11-20T01:29:16;7.03;;;3.13;;
773;SDS011;370;48.810;9.150;2022-11-20T01:31:44;5.85;;;2.25;;
773;SDS011;370;48.810;9.150;2022-11-20T01:34:12;7.25;;;3.28;;
773;SDS011;370;48.810;9.150;2022-11-20T01:36:40;5.20;;;2.50;;
773;SDS011;370;48.810;9.150;2022-11-20T01:39:10;3.33;;;1.75;;
773;SDS011;370;48.810;9.150;2022-11-20T01:41:38;5.43;;;2.30;;
773;SDS011;370;48.810;9.150;2022-11-20T01:47:17;2.33;;;1.83;;
773;SDS011;370;48.810;9.150;2022-11-20T01:49:50;2.35;;;1.75;;
773;SDS011;370;48.810;9.150;2022-11-20T01:52:22;2.17;;;1.60;;
773;SDS011;370;48.810;9.150;2022-11-20T01:54:54;1.67;;;1.13;;
773;SDS011;370;48.810;9.150;2022-11-20T01:57:25;2.83;;;1.30;;
773;SDS011;370;48.810;9.150;2022-11-20T01:59:59;1.27;;;1.05;;
773;SDS011;370;48.810;9.150;2022-11-20T02:02:27;3.15;;;1.20;;
773;SDS011;370;48.810;9.150;2022-11-20T02:04:55;0.85;;;0.75;;
773;SDS011;370;48.810;9.150;2022-11-20T02:07:26;4.00;;;1.10;;
773;SDS011;370;48.810;9.150;2022-11-20T02:09:54;0.90;;;0.80;;
773;SDS011;370;48.810;9.150;2022-11-20T02:12:21;1.35;;;1.30;;
773;SDS011;370;48.810;9.150;2022-11-20T02:15:07;1.35;;;1.02;;
773;SDS011;370;48.810;9.150;2022-11-20T02:17:34;3.63;;;0.98;;
773;SDS011;370;48.810;9.150;2022-11-20T02:20:01;1.08;;;1.00;;
773;SDS011;370;48.810;9.150;2022-11-20T02:22:30;2.35;;;1.13;;
773;SDS011;370;48.810;9.150;2022-11-20T02:25:03;0.93;;;0.80;;
773;SDS011;370;48.810;9.150;2022-11-20T02:27:32;2.08;;;1.52;;
773;SDS011;370;48.810;9.150;2022-11-20T02:30:00;1.27;;;1.23;;
773;SDS011;370;48.810;9.150;2022-11-20T02:32:31;1.52;;;1.30;;
773;SDS011;370;48.810;9.150;2022-11-20T02:35:05;1.95;;;1.17;;
773;SDS011;370;48.810;9.150;2022-11-20T02:37:34;1.95;;;1.48;;
773;SDS011;370;48.810;9.150;2022-11-20T02:40:06;4.65;;;1.45;;
773;SDS011;370;48.810;9.150;2022-11-20T02:45:53;1.15;;;0.93;;
773;SDS011;370;48.810;9.150;2022-11-20T02:48:20;3.10;;;1.65;;
773;SDS011;370;48.810;9.150;2022-11-20T02:50:47;1.25;;;1.13;;
773;SDS011;370;48.810;9.150;2022-11-20T02:53:14;0.90;;;0.80;;
773;SDS011;370;48.810;9.150;2022-11-20T02:55:42;1.33;;;1.23;;
773;SDS011;370;48.810;9.150;2022-11-20T02:58:08;1.95;;;1.50;;
773;SDS011;370;48.810;9.150;2022-11-20T03:00:35;8.38;;;1.42;;
773;SDS011;370;48.810;9.150;2022-11-20T03:03:02;1.48;;;1.13;;
773;SDS011;370;48.810;9.150;2022-11-20T03:05:29;1.20;;;1.10;;
773;SDS011;370;48.810;9.150;2022-11-20T03:07:55;2.72;;;1.00;;
773;SDS011;370;48.810;9.150;2022-11-20T03:10:22;4.18;;;1.80;;
773;SDS011;370;48.810;9.150;2022-11-20T03:12:53;2.47;;;1.38;;
773;SDS011;370;48.810;9.150;2022-11-20T03:15:21;1.48;;;1.13;;
773;SDS011;370;48.810;9.150;2022-11-20T03:17:47;2.83;;;1.77;;
773;SDS011;370;48.810;9.150;2022-11-20T03:20:14;1.60;;;1.27;;
773;SDS011;370;48.810;9.150;2022-11-20T03:22:41;1.13;;;1.05;;
773;SDS011;370;48.810;9.150;2022-11-20T03:25:08;0.90;;;0.80;;
773;SDS011;370;48.810;9.150;2022-11-20T03:27:34;2.20;;;1.10;;
773;SDS011;370;48.810;9.150;2022-11-20T03:30:03;2.50;;;1.25;;
773;SDS011;370;48.810;9.150;2022-11-20T03:32:30;1.95;;;1.45;;
773;SDS011;370;48.810;9.150;2022-11-20T03:34:57;1.92;;;1.25;;
773;SDS011;370;48.810;9.150;2022-11-20T03:37:24;2.25;;;1.30;;
773;SDS011;370;48.810;9.150;2022-11-20T03:39:50;2.72;;;1.58;;
773;SDS011;370;48.810;9.150;2022-11-20T03:42:17;1.85;;;1.13;;
773;SDS011;370;48.810;9.150;2022-11-20T03:45:03;3.45;;;1.40;;
773;SDS011;370;48.810;9.150;2022-11-20T03:47:31;1.63;;;1.08;;
773;SDS011;370;48.810;9.150;2022-11-20T03:49:57;3.25;;;1.27;;
773;SDS011;370;48.810;9.150;2022-11-20T03:52:24;4.07;;;1.40;;
773;SDS011;370;48.810;9.150;2022-11-20T03:54:51;2.13;;;1.25;;
773;SDS011;370;48.810;9.150;2022-11-20T03:57:18;1.52;;;1.05;;
773;SDS011;370;48.810;9.150;2022-11-20T03:59:44;4.07;;;2.00;;
773;SDS011;370;48.810;9.150;2022-11-20T04:02:12;1.88;;;1.10;;
773;SDS011;370;48.810;9.150;2022-11-20T04:04:39;2.78;;;1.40;;
773;SDS011;370;48.810;9.150;2022-11-20T04:07:06;2.50;;;0.98;;
773;SDS011;370;48.810;9.150;2022-11-20T04:09:33;1.73;;;1.33;;
773;SDS011;370;48.810;9.150;2022-11-20T04:12:00;1.02;;;0.95;;
773;SDS011;370;48.810;9.150;2022-11-20T04:14:26;2.35;;;1.40;;
773;SDS011;370;48.810;9.150;2022-11-20T04:16:53;1.67;;;1.42;;
773;SDS011;370;48.810;9.150;2022-11-20T04:19:21;1.95;;;1.15;;
773;SDS011;370;48.810;9.150;2022-11-20T04:21:48;3.38;;;1.38;;
773;SDS011;370;48.810;9.150;2022-11-20T04:24:14;2.88;;;1.70;;
773;SDS011;370;48.810;9.150;2022-11-20T04:26:41;1.45;;;1.35;;
773;SDS011;370;48.810;9.150;2022-11-20T04:29:10;10.32;;;1.85;;
773;SDS011;370;48.810;9.150;2022-11-20T04:31:37;3.08;;;1.50;;
773;SDS011;370;48.810;9.150;2022-11-20T04:34:04;3.20;;;2.20;;
773;SDS011;370;48.810;9.150;2022-11-20T04:36:34;1.40;;;1.20;;
773;SDS011;370;48.810;9.150;2022-11-20T04:39:02;1.95;;;1.55;;
773;SDS011;370;48.810;9.150;2022-11-20T04:41:31;3.53;;;1.90;;
773;SDS011;370;48.810;9.150;2022-11-20T04:44:00;0.98;;;0.90;;
773;SDS011;370;48.810;9.150;2022-11-20T04:46:28;1.08;;;1.05;;
773;SDS011;370;48.810;9.150;2022-11-20T04:48:56;2.63;;;1.15;;
773;SDS011;370;48.810;9.150;2022-11-20T04:51:23;1.35;;;1.10;;
773;SDS011;370;48.810;9.150;2022-11-20T04:53:51;4.35;;;1.67;;
773;SDS011;370;48.810;9.150;2022-11-20T04:56:18;1.50;;;1.15;;
773;SDS011;370;48.810;9.150;2022-11-20T04:58:45;3.45;;;1.13;;
773;SDS011;370;48.810;9.150;2022-11-20T05:01:12;2.53;;;1.67;;
773;SDS011;370;48.810;9.150;2022-11-20T05:03:40;2.88;;;1.38;;
773;SDS011;370;48.810;9.150;2022-11-20T05:06:08;1.52;;;1.40;;
773;SDS011;370;48.810;9.150;2022-11-20T05:08:36;1.27;;;1.10;;
773;SDS011;370;48.810;9.150;2022-11-20T05:11:05;1.50;;;1.10;;
773;SDS011;370;48.810;9.150;2022-11-20T05:13:33;2.08;;;1.45;;
773;SDS011;370;48.810;9.150;2022-11-20T05:16:01;1.42;;;1.10;;
773;SDS011;370;48.810;9.150;2022-11-20T05:18:28;2.00;;;1.10;;
773;SDS011;370;48.810;9.150;2022-11-20T05:20:55;2.28;;;1.40;;
773;SDS011;370;48.810;9.150;2022-11-20T05:23:22;2.03;;;1.67;;
773;SDS011;370;48.810;9.150;2022-11-20T05:25:51;14.70;;;1.42;;
773;SDS011;370;48.810;9.150;2022-11-20T05:28:20;2.78;;;1.40;;
773;SDS011;370;48.810;9.150;2022-11-20T05:30:48;1.50;;;1.08;;
773;SDS011;370;48.810;9.150;2022-11-20T05:33:15;3.33;;;1.10;;
773;SDS011;370;48.810;9.150;2022-11-20T05:35:42;3.83;;;2.25;;
773;SDS011;370;48.810;9.150;2022-11-20T05:38:10;3.72;;;1.20;;
773;SDS011;370;48.810;9.150;2022-11-20T05:40:37;1.48;;;1.40;;
773;SDS011;370;48.810;9.150;2022-11-20T05:43:03;1.35;;;1.10;;
773;SDS011;370;48.810;9.150;2022-11-20T05:45:31;1.95;;;1.15;;
773;SDS011;370;48.810;9.150;2022-11-20T05:47:58;2.05;;;1.20;;
773;SDS011;370;48.810;9.150;2022-11-20T05:50:26;6.47;;;1.10;;
773;SDS011;370;48.810;9.150;2022-11-20T05:52:53;2.30;;;1.10;;
773;SDS011;370;48.810;9.150;2022-11-20T05:55:19;1.30;;;1.20;;
773;SDS011;370;48.810;9.150;2022-11-20T05:57:46;8.20;;;0.85;;
773;SDS011;370;48.810;9.150;2022-11-20T06:00:14;3.40;;;1.60;;
773;SDS011;370;48.810;9.150;2022-11-20T06:02:42;1.65;;;0.85;;
773;SDS011;370;48.810;9.150;2022-11-20T06:05:11;1.10;;;1.00;;
773;SDS011;370;48.810;9.150;2022-11-20T06:07:38;2.08;;;1.27;;
773;SDS011;370;48.810;9.150;2022-11-20T06:10:05;7.55;;;1.10;;
773;SDS011;370;48.810;9.150;2022-11-20T06:12:32;2.05;;;1.00;;
773;SDS011;370;48.810;9.150;2022-11-20T06:14:58;2.95;;;1.90;;
773;SDS011;370;48.810;9.150;2022-11-20T06:17:25;2.10;;;1.10;;
773;SDS011;370;48.810;9.150;2022-11-20T06:19:54;4.45;;;1.30;;
773;SDS011;370;48.810;9.150;2022-11-20T06:22:20;0.90;;;0.80;;
773;SDS011;370;48.810;9.150;2022-11-20T06:24:47;1.38;;;1.27;;
773;SDS011;370;48.810;9.150;2022-11-20T06:27:14;2.00;;;1.50;;
773;SDS011;370;48.810;9.150;2022-11-20T06:29:41;0.75;;;0.70;;
773;SDS011;370;48.810;9.150;2022-11-20T06:32:08;3.13;;;1.40;;
773;SDS011;370;48.810;9.150;2022-11-20T06:34:35;1.40;;;0.90;;
773;SDS011;370;48.810;9.150;2022-11-20T06:37:03;0.95;;;0.90;;
773;SDS011;370;48.810;9.150;2022-11-20T06:39:30;2.05;;;1.13;;
773;SDS011;370;48.810;9.150;2022-11-20T06:41:56;2.35;;;1.17;;
773;SDS011;370;48.810;9.150;2022-11-20T06:44:23;1.85;;;1.52;;
773;SDS011;370;48.810;9.150;2022-11-20T06:46:50;1.45;;;1.15;;
773;SDS011;370;48.810;9.150;2022-11-20T06:49:17;1.08;;;1.00;;
773;SDS011;370;48.810;9.150;2022-11-20T06:51:44;1.17;;;1.00;;
773;SDS011;370;48.810;9.150;2022-11-20T06:54:12;0.80;;;0.70;;
773;SDS011;370;48.810;9.150;2022-11-20T06:56:38;0.93;;;0.85;;
773;SDS011;370;48.810;9.150;2022-11-20T06:59:05;1.13;;;0.85;;
773;SDS011;370;48.810;9.150;2022-11-20T07:01:32;3.45;;;1.25;;
773;SDS011;370;48.810;9.150;2022-11-20T07:04:00;1.67;;;0.95;;
773;SDS011;370;48.810;9.150;2022-11-20T07:06:27;0.70;;;0.70;;
773;SDS011;370;48.810;9.150;2022-11-20T07:08:53;1.38;;;0.80;;
773;SDS011;370;48.810;9.150;2022-11-20T07:11:22;0.70;;;0.60;;
773;SDS011;370;48.810;9.150;2022-11-20T07:13:48;1.15;;;0.88;;
773;SDS011;370;48.810;9.150;2022-11-20T07:16:15;1.30;;;0.88;;
773;SDS011;370;48.810;9.150;2022-11-20T07:18:42;1.00;;;0.90;;
773;SDS011;370;48.810;9.150;2022-11-20T07:21:09;0.77;;;0.73;;
773;SDS011;370;48.810;9.150;2022-11-20T07:23:36;2.13;;;0.90;;
773;SDS011;370;48.810;9.150;2022-11-20T07:26:04;1.38;;;1.30;;
773;SDS011;370;48.810;9.150;2022-11-20T07:28:33;1.23;;;1.10;;
773;SDS011;370;48.810;9.150;2022-11-20T07:31:00;0.65;;;0.60;;
773;SDS011;370;48.810;9.150;2022-11-20T07:33:27;0.77;;;0.68;;
773;SDS011;370;48.810;9.150;2022-11-20T07:35:54;2.63;;;1.30;;
773;SDS011;370;48.810;9.150;2022-11-20T07:38:21;0.85;;;0.82;;
773;SDS011;370;48.810;9.150;2022-11-20T07:40:48;0.98;;;0.88;;
773;SDS011;370;48.810;9.150;2022-11-20T07:43:19;1.85;;;0.80;;
773;SDS011;370;48.810;9.150;2022-11-20T07:45:47;1.17;;;1.08;;
773;SDS011;370;48.810;9.150;2022-11-20T07:48:13;6.00;;;1.20;;
773;SDS011;370;48.810;9.150;2022-11-20T07:50:40;1.77;;;0.60;;
773;SDS011;370;48.810;9.150;2022-11-20T07:53:07;0.88;;;0.73;;
773;SDS011;370;48.810;9.150;2022-11-20T07:55:34;1.23;;;1.02;;
773;SDS011;370;48.810;9.150;2022-11-20T07:58:01;7.75;;;0.98;;
773;SDS011;370;48.810;9.150;2022-11-20T08:00:27;1.30;;;0.75;;
773;SDS011;370;48.810;9.150;2022-11-20T08:02:55;1.42;;;0.80;;
773;SDS011;370;48.810;9.150;2022-11-20T08:05:22;1.40;;;1.30;;
773;SDS011;370;48.810;9.150;2022-11-20T08:07:49;0.75;;;0.65;;
773;SDS011;370;48.810;9.150;2022-11-20T08:10:16;2.22;;;1.50;;
773;SDS011;370;48.810;9.150;2022-11-20T08:12:44;1.88;;;1.60;;
773;SDS011;370;48.810;9.150;2022-11-20T08:15:29;1.00;;;0.90;;
773;SDS011;370;48.810;9.150;2022-11-20T08:18:01;0.80;;;0.73;;
773;SDS011;370;48.810;9.150;2022-11-20T08:20:29;0.70;;;0.60;;
773;SDS011;370;48.810;9.150;2022-11-20T08:23:00;1.48;;;0.75;;
773;SDS011;370;48.810;9.150;2022-11-20T08:25:32;0.70;;;0.70;;
773;SDS011;370;48.810;9.150;2022-11-20T08:28:04;0.60;;;0.60;;
773;SDS011;370;48.810;9.150;2022-11-20T08:30:33;0.95;;;0.70;;
773;SDS011;370;48.810;9.150;2022-11-20T08:33:02;0.90;;;0.75;;
773;SDS011;370;48.810;9.150;2022-11-20T08:35:32;1.15;;;0.80;;
773;SDS011;370;48.810;9.150;2022-11-20T08:38:00;0.88;;;0.73;;
773;SDS011;370;48.810;9.150;2022-11-20T08:40:27;0.55;;;0.52;;
773;SDS011;370;48.810;9.150;2022-11-20T08:42:54;2.15;;;0.98;;
773;SDS011;370;48.810;9.150;2022-11-20T08:45:21;0.50;;;0.50;;
773;SDS011;370;48.810;9.150;2022-11-20T08:47:48;1.70;;;0.85;;
773;SDS011;370;48.810;9.150;2022-11-20T08:50:17;0.70;;;0.60;;
773;SDS011;370;48.810;9.150;2022-11-20T08:52:44;6.28;;;1.02;;
773;SDS011;370;48.810;9.150;2022-11-20T08:55:11;0.95;;;0.60;;
773;SDS011;370;48.810;9.150;2022-11-20T08:57:38;2.35;;;0.50;;
773;SDS011;370;48.810;9.150;2022-11-20T09:00:05;0.77;;;0.70;;
773;SDS011;370;48.810;9.150;2022-11-20T09:02:33;0.65;;;0.60;;
773;SDS011;370;48.810;9.150;2022-11-20T09:05:01;0.85;;;0.77;;
773;SDS011;370;48.810;9.150;2022-11-20T09:07:29;4.70;;;0.90;;
773;SDS011;370;48.810;9.150;2022-11-20T09:09:56;1.05;;;0.50;;
773;SDS011;370;48.810;9.150;2022-11-20T09:12:23;0.65;;;0.60;;
773;SDS011;370;48.810;9.150;2022-11-20T09:14:50;0.68;;;0.57;;
773;SDS011;370;48.810;9.150;2022-11-20T09:17:17;0.70;;;0.50;;
773;SDS011;370;48.810;9.150;2022-11-20T09:19:45;0.55;;;0.40;;
773;SDS011;370;48.810;9.150;2022-11-20T09:22:12;0.68;;;0.50;;
773;SDS011;370;48.810;9.150;2022-11-20T09:24:40;0.60;;;0.50;;
773;SDS011;370;48.810;9.150;2022-11-20T09:27:08;0.68;;;0.57;;
773;SDS011;370;48.810;9.150;2022-11-20T09:29:34;0.93;;;0.50;;
773;SDS011;370;48.810;9.150;2022-11-20T09:32:01;0.50;;;0.50;;
773;SDS011;370;48.810;9.150;2022-11-20T09:34:28;7.40;;;0.60;;
773;SDS011;370;48.810;9.150;2022-11-20T09:36:55;0.50;;;0.45;;
773;SDS011;370;48.810;9.150;2022-11-20T09:39:22;1.13;;;0.80;;
773;SDS011;370;48.810;9.150;2022-11-20T09:41:58;0.80;;;0.70;;
773;SDS011;370;48.810;9.150;2022-11-20T09:44:45;0.70;;;0.60;;
773;SDS011;370;48.810;9.150;2022-11-20T09:47:20;0.90;;;0.75;;
773;SDS011;370;48.810;9.150;2022-11-20T09:49:59;2.55;;;0.90;;
773;SDS011;370;48.810;9.150;2022-11-20T09:52:37;0.60;;;0.50;;
773;SDS011;370;48.810;9.150;2022-11-20T09:55:16;1.15;;;0.60;;
773;SDS011;370;48.810;9.150;2022-11-20T09:57:46;1.63;;;0.68;;
773;SDS011;370;48.810;9.150;2022-11-20T10:00:15;3.13;;;1.00;;
773;SDS011;370;48.810;9.150;2022-11-20T10:02:44;10.55;;;2.58;;
773;SDS011;370;48.810;9.150;2022-11-20T10:05:17;4.22;;;1.65;;
773;SDS011;370;48.810;9.150;2022-11-20T10:07:47;8.13;;;2.10;;
773;SDS011;370;48.810;9.150;2022-11-20T10:10:22;21.85;;;4.20;;
773;SDS011;370;48.810;9.150;2022-11-20T10:13:02;4.85;;;1.70;;
773;SDS011;370;48.810;9.150;2022-11-20T10:15:43;3.63;;;1.00;;
773;SDS011;370;48.810;9.150;2022-11-20T10:18:22;2.47;;;1.20;;
773;SDS011;370;48.810;9.150;2022-11-20T10:20:57;1.95;;;1.02;;
773;SDS011;370;48.810;9.150;2022-11-20T10:26:25;7.97;;;2.58;;
773;SDS011;370;48.810;9.150;2022-11-20T10:29:03;6.32;;;2.67;;
773;SDS011;370;48.810;9.150;2022-11-20T10:31:37;1.13;;;0.77;;
773;SDS011;370;48.810;9.150;2022-11-20T10:34:06;1.90;;;1.02;;
773;SDS011;370;48.810;9.150;2022-11-20T10:36:43;3.53;;;1.67;;
773;SDS011;370;48.810;9.150;2022-11-20T10:39:15;2.50;;;0.90;;
773;SDS011;370;48.810;9.150;2022-11-20T10:41:44;0.85;;;0.80;;
773;SDS011;370;48.810;9.150;2022-11-20T10:44:20;0.82;;;0.70;;
773;SDS011;370;48.810;9.150;2022-11-20T10:47:02;0.60;;;0.50;;
773;SDS011;370;48.810;9.150;2022-11-20T10:49:30;3.22;;;1.00;;
773;SDS011;370;48.810;9.150;2022-11-20T10:51:59;0.80;;;0.65;;
773;SDS011;370;48.810;9.150;2022-11-20T10:54:32;5.22;;;0.70;;
773;SDS011;370;48.810;9.150;2022-11-20T10:57:07;3.15;;;1.00;;
773;SDS011;370;48.810;9.150;2022-11-20T11:02:32;0.80;;;0.70;;
773;SDS011;370;48.810;9.150;2022-11-20T11:05:06;1.15;;;0.80;;
773;SDS011;370;48.810;9.150;2022-11-20T11:07:40;2.60;;;1.10;;
773;SDS011;370;48.810;9.150;2022-11-20T11:10:13;1.13;;;1.10;;
773;SDS011;370;48.810;9.150;2022-11-20T11:12:43;0.82;;;0.73;;
773;SDS011;370;48.810;9.150;2022-11-20T11:15:14;0.45;;;0.45;;
773;SDS011;370;48.810;9.150;2022-11-20T11:17:51;1.40;;;0.88;;
773;SDS011;370;48.810;9.150;2022-11-20T11:20:26;1.00;;;0.70;;
773;SDS011;370;48.810;9.150;2022-11-20T11:23:01;0.73;;;0.63;;
773;SDS011;370;48.810;9.150;2022-11-20T11:25:30;4.75;;;1.23;;
773;SDS011;370;48.810;9.150;2022-11-20T11:28:00;1.38;;;1.27;;
773;SDS011;370;48.810;9.150;2022-11-20T11:30:40;1.55;;;1.17;;
773;SDS011;370;48.810;9.150;2022-11-20T11:33:09;3.20;;;1.80;;
773;SDS011;370;48.810;9.150;2022-11-20T11:35:39;3.13;;;1.90;;
773;SDS011;370;48.810;9.150;2022-11-20T11:38:12;2.60;;;1.80;;
773;SDS011;370;48.810;9.150;2022-11-20T11:40:42;2.53;;;1.93;;
773;SDS011;370;48.810;9.150;2022-11-20T11:43:16;2.10;;;1.70;;
773;SDS011;370;48.810;9.150;2022-11-20T11:46:06;2.60;;;1.53;;
773;SDS011;370;48.810;9.150;2022-11-20T11:48:54;1.50;;;1.47;;
773;SDS011;370;48.810;9.150;2022-11-20T11:51:23;1.60;;;1.50;;
773;SDS011;370;48.810;9.150;2022-11-20T11:53:54;3.07;;;1.40;;
773;SDS011;370;48.810;9.150;2022-11-20T11:56:24;3.90;;;1.23;;
773;SDS011;370;48.810;9.150;2022-11-20T11:59:00;1.97;;;1.40;;
773;SDS011;370;48.810;9.150;2022-11-20T12:01:36;3.27;;;1.47;;
773;SDS011;370;48.810;9.150;2022-11-20T12:04:11;2.13;;;1.60;;
773;SDS011;370;48.810;9.150;2022-11-20T12:06:45;2.70;;;1.50;;
773;SDS011;370;48.810;9.150;2022-11-20T12:09:16;2.43;;;1.30;;
773;SDS011;370;48.810;9.150;2022-11-20T12:11:46;1.17;;;1.07;;
773;SDS011;370;48.810;9.150;2022-11-20T12:14:21;1.20;;;1.20;;
773;SDS011;370;48.810;9.150;2022-11-20T12:16:58;1.23;;;1.13;;
773;SDS011;370;48.810;9.150;2022-11-20T12:19:26;6.50;;;1.40;;
773;SDS011;370;48.810;9.150;2022-11-20T12:21:59;2.60;;;1.20;;
773;SDS011;370;48.810;9.150;2022-11-20T12:24:36;1.00;;;0.90;;
773;SDS011;370;48.810;9.150;2022-11-20T12:27:16;2.50;;;0.90;;
773;SDS011;370;48.810;9.150;2022-11-20T12:30:04;2.40;;;0.90;;
773;SDS011;370;48.810;9.150;2022-11-20T12:35:42;1.37;;;1.00;;
773;SDS011;370;48.810;9.150;2022-11-20T12:41:12;2.00;;;1.13;;
773;SDS011;370;48.810;9.150;2022-11-20T12:44:08;2.80;;;1.07;;
773;SDS011;370;48.810;9.150;2022-11-20T12:47:07;2.70;;;1.23;;
773;SDS011;370;48.810;9.150;2022-11-20T12:49:52;1.00;;;0.80;;
773;SDS011;370;48.810;9.150;2022-11-20T12:52:37;1.13;;;1.10;;
773;SDS011;370;48.810;9.150;2022-11-20T12:55:25;0.60;;;0.60;;
773;SDS011;370;48.810;9.150;2022-11-20T12:58:04;1.60;;;0.95;;
773;SDS011;370;48.810;9.150;2022-11-20T13:00:37;0.90;;;0.80;;
773;SDS011;370;48.810;9.150;2022-11-20T13:03:11;1.00;;;0.68;;
773;SDS011;370;48.810;9.150;2022-11-20T13:05:59;0.70;;;0.60;;
773;SDS011;370;48.810;9.150;2022-11-20T13:08:33;0.77;;;0.73;;
773;SDS011;370;48.810;9.150;2022-11-20T13:11:03;0.70;;;0.70;;
773;SDS011;370;48.810;9.150;2022-11-20T13:13:42;0.50;;;0.50;;
773;SDS011;370;48.810;9.150;2022-11-20T13:16:19;1.08;;;0.80;;
773;SDS011;370;48.810;9.150;2022-11-20T13:18:51;6.50;;;0.60;;
773;SDS011;370;48.810;9.150;2022-11-20T13:21:19;0.57;;;0.55;;
773;SDS011;370;48.810;9.150;2022-11-20T13:23:49;0.65;;;0.60;;
773;SDS011;370;48.810;9.150;2022-11-20T13:26:17;0.73;;;0.70;;
773;SDS011;370;48.810;9.150;2022-11-20T13:28:46;0.73;;;0.63;;
773;SDS011;370;48.810;9.150;2022-11-20T13:31:28;1.00;;;0.60;;
773;SDS011;370;48.810;9.150;2022-11-20T13:33:57;0.70;;;0.60;;
773;SDS011;370;48.810;9.150;2022-11-20T13:36:26;1.13;;;0.60;;
773;SDS011;370;48.810;9.150;2022-11-20T13:38:56;0.60;;;0.50;;
773;SDS011;370;48.810;9.150;2022-11-20T13:41:25;2.15;;;0.70;;
773;SDS011;370;48.810;9.150;2022-11-20T13:43:59;0.50;;;0.50;;
773;SDS011;370;48.810;9.150;2022-11-20T13:46:36;0.73;;;0.60;;
773;SDS011;370;48.810;9.150;2022-11-20T13:49:07;3.10;;;0.60;;
773;SDS011;370;48.810;9.150;2022-11-20T13:51:40;1.15;;;0.82;;
773;SDS011;370;48.810;9.150;2022-11-20T13:54:21;0.70;;;0.60;;
773;SDS011;370;48.810;9.150;2022-11-20T13:57:16;1.15;;;0.60;;
773;SDS011;370;48.810;9.150;2022-11-20T14:00:09;5.95;;;1.13;;
773;SDS011;370;48.810;9.150;2022-11-20T14:02:39;0.63;;;0.52;;
773;SDS011;370;48.810;9.150;2022-11-20T14:05:11;0.60;;;0.50;;
773;SDS011;370;48.810;9.150;2022-11-20T14:07:45;0.60;;;0.50;;
773;SDS011;370;48.810;9.150;2022-11-20T14:10:20;4.82;;;1.02;;
773;SDS011;370;48.810;9.150;2022-11-20T14:12:49;0.60;;;0.50;;
773;SDS011;370;48.810;9.150;2022-11-20T14:15:27;0.68;;;0.60;;
773;SDS011;370;48.810;9.150;2022-11-20T14:17:55;0.40;;;0.40;;
773;SDS011;370;48.810;9.150;2022-11-20T14:20:23;4.03;;;0.73;;
773;SDS011;370;48.810;9.150;2022-11-20T14:22:52;1.35;;;0.70;;
773;SDS011;370;48.810;9.150;2022-11-20T14:25:22;1.48;;;0.80;;
773;SDS011;370;48.810;9.150;2022-11-20T14:27:52;2.50;;;0.93;;
773;SDS011;370;48.810;9.150;2022-11-20T14:30:22;0.90;;;0.80;;
773;SDS011;370;48.810;9.150;2022-11-20T14:32:50;2.63;;;1.10;;
773;SDS011;370;48.810;9.150;2022-11-20T14:35:20;2.67;;;0.82;;
773;SDS011;370;48.810;9.150;2022-11-20T14:37:49;0.85;;;0.70;;
773;SDS011;370;48.810;9.150;2022-11-20T14:40:23;1.55;;;0.65;;
773;SDS011;370;48.810;9.150;2022-11-20T14:42:52;0.85;;;0.75;;
773;SDS011;370;48.810;9.150;2022-11-20T14:45:20;1.13;;;0.70;;
773;SDS011;370;48.810;9.150;2022-11-20T14:47:48;3.17;;;0.68;;
773;SDS011;370;48.810;9.150;2022-11-20T14:50:18;1.42;;;0.60;;
773;SDS011;370;48.810;9.150;2022-11-20T14:52:51;0.60;;;0.50;;
773;SDS011;370;48.810;9.150;2022-11-20T14:55:27;0.68;;;0.57;;
773;SDS011;370;48.810;9.150;2022-11-20T14:57:55;1.52;;;1.13;;
773;SDS011;370;48.810;9.150;2022-11-20T15:00:24;2.28;;;0.65;;
773;SDS011;370;48.810;9.150;2022-11-20T15:02:51;0.50;;;0.50;;
773;SDS011;370;48.810;9.150;2022-11-20T15:05:19;1.05;;;0.90;;
773;SDS011;370;48.810;9.150;2022-11-20T15:07:48;1.23;;;0.63;;
773;SDS011;370;48.810;9.150;2022-11-20T15:10:21;0.60;;;0.52;;
773;SDS011;370;48.810;9.150;2022-11-20T15:12:51;4.47;;;0.93;;
773;SDS011;370;48.810;9.150;2022-11-20T15:15:21;0.60;;;0.50;;
773;SDS011;370;48.810;9.150;2022-11-20T15:17:51;3.15;;;1.33;;
773;SDS011;370;48.810;9.150;2022-11-20T15:20:26;1.35;;;0.70;;
773;SDS011;370;48.810;9.150;2022-11-20T15:22:56;0.65;;;0.47;;
773;SDS011;370;48.810;9.150;2022-11-20T15:25:23;13.63;;;0.93;;
773;SDS011;370;48.810;9.150;2022-11-20T15:27:53;0.73;;;0.68;;
773;SDS011;370;48.810;9.150;2022-11-20T15:30:21;1.20;;;1.05;;
773;SDS011;370;48.810;9.150;2022-11-20T15:32:49;1.67;;;0.70;;
773;SDS011;370;48.810;9.150;2022-11-20T15:35:16;1.35;;;1.02;;
773;SDS011;370;48.810;9.150;2022-11-20T15:37:43;0.80;;;0.70;;
773;SDS011;370;48.810;9.150;2022-11-20T15:40:10;4.85;;;0.80;;
773;SDS011;370;48.810;9.150;2022-11-20T15:42:37;0.95;;;0.70;;
773;SDS011;370;48.810;9.150;2022-11-20T15:45:25;1.27;;;0.93;;
773;SDS011;370;48.810;9.150;2022-11-20T15:47:55;2.67;;;0.70;;
773;SDS011;370;48.810;9.150;2022-11-20T15:50:23;1.58;;;0.63;;
773;SDS011;370;48.810;9.150;2022-11-20T15:52:53;2.03;;;0.75;;
773;SDS011;370;48.810;9.150;2022-11-20T15:55:20;0.70;;;0.60;;
773;SDS011;370;48.810;9.150;2022-11-20T15:57:46;1.67;;;0.70;;
773;SDS011;370;48.810;9.150;2022-11-20T16:00:14;0.88;;;0.50;;
773;SDS011;370;48.810;9.150;2022-11-20T16:02:43;0.80;;;0.80;;
773;SDS011;370;48.810;9.150;2022-11-20T16:05:10;2.50;;;0.80;;
773;SDS011;370;48.810;9.150;2022-11-20T16:07:38;0.73;;;0.70;;
773;SDS011;370;48.810;9.150;2022-11-20T16:10:05;0.88;;;0.70;;
773;SDS011;370;48.810;9.150;2022-11-20T16:12:33;1.10;;;0.70;;
773;SDS011;370;48.810;9.150;2022-11-20T16:15:17;0.90;;;0.90;;
773;SDS011;370;48.810;9.150;2022-11-20T16:18:03;4.13;;;1.17;;
773;SDS011;370;48.810;9.150;2022-11-20T16:20:30;0.93;;;0.80;;